createdAt,value
2022-11-16T00:00:06.509Z,62.13
2022-11-16T00:02:35.477Z,62.16
2022-11-16T00:05:04.135Z,62.50
2022-11-16T00:07:32.536Z,62.61
2022-11-16T00:10:02.302Z,62.70
2022-11-16T00:12:30.561Z,62.78
2022-11-16T00:14:58.819Z,62.96
2022-11-16T00:17:27.181Z,63.16
2022-11-16T00:19:55.373Z,63.15
2022-11-16T00:22:23.790Z,63.05
2022-11-16T00:24:52.007Z,63.02
2022-11-16T00:27:21.639Z,63.01
2022-11-16T00:29:49.950Z,63.41
2022-11-16T00:32:18.163Z,63.53
2022-11-16T00:34:46.599Z,63.47
2022-11-16T00:37:14.792Z,63.49
2022-11-16T00:39:43.129Z,63.54
2022-11-16T00:42:14.119Z,63.60
2022-11-16T00:44:43.813Z,63.73
2022-11-16T00:47:12.114Z,63.79
2022-11-16T00:49:40.875Z,63.74
2022-11-16T00:52:09.188Z,63.73
2022-11-16T00:54:37.493Z,63.73
2022-11-16T00:57:06.189Z,63.88
2022-11-16T00:59:34.817Z,64.00
2022-11-16T01:02:05.602Z,63.76
2022-11-16T01:04:33.928Z,64.14
2022-11-16T01:07:02.344Z,64.07
2022-11-16T01:09:30.695Z,64.17
2022-11-16T01:12:10.709Z,64.22
2022-11-16T01:14:40.535Z,64.34
2022-11-16T01:17:10.438Z,64.34
2022-11-16T01:19:39.401Z,64.29
2022-11-16T01:22:08.778Z,64.24
2022-11-16T01:24:37.025Z,64.30
2022-11-16T01:27:05.557Z,64.36
2022-11-16T01:29:36.696Z,64.31
2022-11-16T01:32:05.322Z,64.32
2022-11-16T01:34:36.141Z,64.21
2022-11-16T01:37:11.233Z,64.24
2022-11-16T01:39:42.231Z,64.14
2022-11-16T01:42:18.007Z,64.21
2022-11-16T01:45:19.943Z,64.09
2022-11-16T01:47:49.730Z,64.63
2022-11-16T01:50:23.622Z,64.47
2022-11-16T01:52:56.111Z,64.47
2022-11-16T01:55:28.192Z,64.50
2022-11-16T01:58:21.960Z,64.59
2022-11-16T02:00:55.797Z,64.72
2022-11-16T02:03:32.935Z,64.77
2022-11-16T02:06:16.670Z,64.66
2022-11-16T02:09:19.473Z,64.50
2022-11-16T02:12:10.069Z,64.74
2022-11-16T02:14:57.654Z,64.77
2022-11-16T02:17:37.607Z,64.67
2022-11-16T02:20:39.045Z,64.71
2022-11-16T02:23:43.690Z,64.88
2022-11-16T02:26:33.276Z,64.93
2022-11-16T02:29:17.423Z,65.04
2022-11-16T02:31:52.756Z,65.30
2022-11-16T02:34:24.122Z,65.30
2022-11-16T02:36:56.062Z,65.32
2022-11-16T02:39:27.379Z,65.13
2022-11-16T02:41:57.733Z,65.44
2022-11-16T02:44:33.835Z,65.30
2022-11-16T02:47:06.648Z,65.32
2022-11-16T02:49:37.774Z,65.20
2022-11-16T02:52:06.670Z,65.26
2022-11-16T02:54:34.902Z,65.40
2022-11-16T02:57:30.300Z,64.95
2022-11-16T03:00:02.298Z,65.08
2022-11-16T03:02:44.982Z,65.18
2022-11-16T03:05:18.396Z,65.17
2022-11-16T03:08:03.332Z,64.88
2022-11-16T03:10:51.139Z,65.23
2022-11-16T03:13:24.781Z,65.11
2022-11-16T03:15:57.272Z,65.14
2022-11-16T03:18:29.773Z,65.01
2022-11-16T03:21:10.517Z,64.78
2022-11-16T03:23:39.207Z,65.00
2022-11-16T03:26:11.885Z,64.87
2022-11-16T03:28:47.987Z,65.04
2022-11-16T03:31:22.886Z,64.97
2022-11-16T03:33:56.180Z,65.18
2022-11-16T03:36:28.928Z,65.06
2022-11-16T03:39:01.817Z,65.16
2022-11-16T03:41:32.849Z,65.36
2022-11-16T03:44:02.150Z,65.37
2022-11-16T03:46:31.946Z,65.33
2022-11-16T03:49:02.191Z,65.27
2022-11-16T03:51:35.381Z,65.22
2022-11-16T03:54:04.224Z,65.30
2022-11-16T03:56:33.766Z,65.40
2022-11-16T03:59:02.453Z,65.39
2022-11-16T04:01:33.517Z,65.42
2022-11-16T04:04:01.990Z,65.49
2022-11-16T04:06:48.072Z,65.57
2022-11-16T04:09:34.051Z,65.53
2022-11-16T04:12:19.988Z,65.69
2022-11-16T04:15:06.435Z,65.63
2022-11-16T04:17:55.316Z,65.62
2022-11-16T04:20:40.696Z,65.80
2022-11-16T04:23:30.266Z,65.98
2022-11-16T04:25:59.051Z,66.15
2022-11-16T04:28:31.749Z,66.18
2022-11-16T04:31:22.497Z,66.79
2022-11-16T04:34:16.578Z,66.73
2022-11-16T04:37:06.605Z,66.33
2022-11-16T04:39:34.823Z,66.56
2022-11-16T04:42:19.917Z,66.49
2022-11-16T04:45:08.414Z,66.66
2022-11-16T04:47:50.001Z,66.63
2022-11-16T04:50:21.775Z,66.46
2022-11-16T04:52:51.419Z,66.30
2022-11-16T04:55:19.628Z,66.49
2022-11-16T04:57:49.578Z,67.18
2022-11-16T05:00:19.235Z,66.93
2022-11-16T05:02:47.604Z,66.91
2022-11-16T05:05:16.042Z,66.71
2022-11-16T05:07:47.159Z,66.75
2022-11-16T05:10:21.897Z,66.76
2022-11-16T05:12:51.400Z,66.76
2022-11-16T05:15:19.882Z,67.07
2022-11-16T05:17:50.048Z,66.99
2022-11-16T05:20:39.491Z,67.32
2022-11-16T05:23:30.721Z,66.98
2022-11-16T05:26:03.429Z,67.38
2022-11-16T05:28:31.678Z,66.90
2022-11-16T05:30:59.892Z,66.94
2022-11-16T05:33:29.692Z,66.88
2022-11-16T05:35:57.848Z,66.75
2022-11-16T05:38:27.288Z,66.75
2022-11-16T05:40:59.093Z,66.75
2022-11-16T05:43:27.358Z,66.67
2022-11-16T05:46:09.697Z,66.65
2022-11-16T05:48:38.546Z,66.92
2022-11-16T05:51:07.678Z,67.15
2022-11-16T05:53:37.614Z,67.33
2022-11-16T05:56:07.302Z,67.32
2022-11-16T05:58:38.897Z,67.43
2022-11-16T06:01:07.565Z,67.29
2022-11-16T06:03:36.689Z,67.36
2022-11-16T06:06:06.477Z,67.17
2022-11-16T06:08:34.756Z,67.22
2022-11-16T06:11:09.320Z,67.28
2022-11-16T06:13:38.582Z,67.47
2022-11-16T06:16:08.461Z,67.61
2022-11-16T06:18:39.529Z,67.45
2022-11-16T06:21:09.062Z,67.65
2022-11-16T06:23:37.229Z,67.63
2022-11-16T06:26:07.432Z,67.56
2022-11-16T06:28:37.225Z,68.13
2022-11-16T06:31:06.165Z,67.91
2022-11-16T06:33:38.577Z,67.64
2022-11-16T06:36:11.850Z,67.82
2022-11-16T06:38:39.901Z,68.25
2022-11-16T06:41:10.725Z,67.91
2022-11-16T06:43:44.267Z,68.44
2022-11-16T06:46:12.588Z,69.12
2022-11-16T06:48:41.478Z,69.15
2022-11-16T06:51:13.525Z,69.33
2022-11-16T06:53:41.546Z,68.66
2022-11-16T06:56:14.753Z,68.81
2022-11-16T06:58:52.884Z,69.21
2022-11-16T07:01:21.573Z,69.23
2022-11-16T07:03:50.675Z,68.96
2022-11-16T07:06:18.727Z,69.39
2022-11-16T07:08:47.525Z,68.97
2022-11-16T07:11:21.290Z,69.23
2022-11-16T07:13:49.558Z,68.89
2022-11-16T07:16:17.843Z,68.52
2022-11-16T07:18:52.824Z,68.47
2022-11-16T07:21:21.065Z,68.74
2022-11-16T07:23:49.271Z,68.70
2022-11-16T07:26:22.261Z,68.70
2022-11-16T07:28:59.535Z,68.88
2022-11-16T07:31:28.655Z,68.65
2022-11-16T07:34:15.047Z,68.58
2022-11-16T07:36:49.449Z,68.90
2022-11-16T07:39:18.686Z,69.22
2022-11-16T07:41:50.406Z,69.41
2022-11-16T07:44:27.668Z,69.21
2022-11-16T07:47:07.153Z,69.36
2022-11-16T07:49:37.104Z,69.07
2022-11-16T07:52:12.625Z,68.81
2022-11-16T07:55:03.690Z,68.68
2022-11-16T07:57:33.408Z,68.46
2022-11-16T08:00:09.914Z,68.58
2022-11-16T08:02:49.094Z,68.71
2022-11-16T08:05:20.736Z,68.62
2022-11-16T08:07:51.077Z,68.58
2022-11-16T08:10:23.288Z,68.30
2022-11-16T08:12:53.399Z,68.94
2022-11-16T08:15:23.517Z,68.91
2022-11-16T08:17:52.735Z,68.50
2022-11-16T08:20:20.952Z,68.56
2022-11-16T08:22:50.732Z,68.55
2022-11-16T08:25:19.767Z,68.65
2022-11-16T08:27:48.537Z,68.33
2022-11-16T08:30:20.577Z,67.94
2022-11-16T08:32:49.522Z,67.88
2022-11-16T08:35:18.010Z,67.88
2022-11-16T08:37:46.673Z,67.86
2022-11-16T08:40:15.776Z,67.78
2022-11-16T08:42:44.664Z,67.80
2022-11-16T08:45:13.778Z,67.66
2022-11-16T08:47:44.273Z,67.72
2022-11-16T08:50:12.325Z,67.60
2022-11-16T08:52:40.402Z,68.39
2022-11-16T08:55:10.229Z,68.12
2022-11-16T08:57:38.998Z,68.13
2022-11-16T09:00:12.413Z,68.62
2022-11-16T09:02:40.586Z,68.12
2022-11-16T09:05:12.163Z,67.85
2022-11-16T09:07:40.955Z,67.65
2022-11-16T09:10:10.233Z,67.51
2022-11-16T09:12:38.428Z,67.49
2022-11-16T09:15:07.532Z,67.34
2022-11-16T09:17:35.527Z,67.37
2022-11-16T09:20:03.886Z,67.20
2022-11-16T09:22:33.416Z,67.14
2022-11-16T09:25:01.591Z,67.84
2022-11-16T09:27:30.010Z,67.86
2022-11-16T09:29:58.032Z,68.24
2022-11-16T09:32:26.070Z,68.41
2022-11-16T09:34:54.309Z,68.06
2022-11-16T09:37:22.444Z,67.84
2022-11-16T09:39:52.332Z,68.23
2022-11-16T09:42:34.260Z,68.15
2022-11-16T09:45:06.412Z,68.04
2022-11-16T09:47:44.564Z,67.69
2022-11-16T09:50:23.878Z,67.36
2022-11-16T09:52:56.367Z,68.13
2022-11-16T09:55:33.713Z,67.85
2022-11-16T09:58:08.734Z,68.17
2022-11-16T10:00:38.543Z,68.33
2022-11-16T10:03:11.413Z,68.01
2022-11-16T10:05:45.576Z,68.23
2022-11-16T10:08:19.280Z,68.01
2022-11-16T10:10:57.651Z,67.58
2022-11-16T10:13:39.881Z,67.96
2022-11-16T10:16:15.658Z,67.46
2022-11-16T10:18:53.740Z,67.67
2022-11-16T10:21:37.395Z,67.26
2022-11-16T10:24:46.022Z,67.11
2022-11-16T10:27:47.430Z,67.03
2022-11-16T10:30:18.110Z,67.28
2022-11-16T10:32:51.145Z,67.14
2022-11-16T10:35:24.099Z,67.30
2022-11-16T10:37:53.253Z,67.14
2022-11-16T10:40:24.955Z,66.98
2022-11-16T10:43:02.453Z,66.57
2022-11-16T10:45:36.421Z,67.04
2022-11-16T10:48:13.567Z,67.05
2022-11-16T10:50:45.083Z,67.02
2022-11-16T10:53:15.605Z,66.91
2022-11-16T10:55:43.827Z,67.71
2022-11-16T10:58:13.237Z,67.36
2022-11-16T11:00:52.003Z,66.61
2022-11-16T11:03:32.392Z,66.80
2022-11-16T11:06:01.227Z,66.89
2022-11-16T11:08:31.545Z,67.14
2022-11-16T11:11:22.669Z,66.81
2022-11-16T11:14:09.894Z,66.41
2022-11-16T11:16:38.051Z,67.05
2022-11-16T11:19:20.201Z,66.52
2022-11-16T11:21:48.692Z,66.61
2022-11-16T11:24:43.308Z,66.56
2022-11-16T11:27:06.971Z,66.65
2022-11-16T11:29:38.748Z,66.21
2022-11-16T11:32:09.087Z,66.49
2022-11-16T11:34:42.742Z,66.17
2022-11-16T11:37:16.628Z,66.48
2022-11-16T11:39:44.947Z,66.35
2022-11-16T11:42:30.889Z,65.95
2022-11-16T11:45:06.577Z,66.84
2022-11-16T11:47:59.650Z,66.48
2022-11-16T11:50:40.001Z,66.68
2022-11-16T11:53:12.763Z,66.58
2022-11-16T11:55:41.088Z,66.70
2022-11-16T11:58:17.587Z,66.44
2022-11-16T12:00:58.139Z,65.93
2022-11-16T12:03:56.282Z,65.94
2022-11-16T12:06:30.873Z,66.06
2022-11-16T12:09:09.697Z,65.94
2022-11-16T12:11:50.484Z,65.72
2022-11-16T12:14:30.005Z,65.99
2022-11-16T12:17:07.296Z,65.86
2022-11-16T12:20:05.928Z,65.56
2022-11-16T12:22:59.719Z,65.85
2022-11-16T12:25:38.275Z,65.77
2022-11-16T12:28:18.073Z,65.59
2022-11-16T12:30:54.381Z,66.00
2022-11-16T12:33:35.241Z,65.93
2022-11-16T12:36:09.572Z,65.93
2022-11-16T12:38:50.760Z,65.78
2022-11-16T12:41:40.021Z,65.96
2022-11-16T12:44:11.799Z,65.89
2022-11-16T12:46:51.281Z,65.67
2022-11-16T12:49:48.095Z,65.30
2022-11-16T12:52:27.749Z,65.24
2022-11-16T12:55:27.339Z,65.12
2022-11-16T12:58:08.598Z,64.95
2022-11-16T13:00:51.870Z,65.18
2022-11-16T13:03:24.736Z,65.46
2022-11-16T13:05:59.670Z,64.90
2022-11-16T13:08:43.073Z,65.30
2022-11-16T13:11:17.089Z,65.30
2022-11-16T13:13:52.772Z,65.46
2022-11-16T13:16:22.497Z,65.51
2022-11-16T13:18:51.384Z,65.34
2022-11-16T13:21:38.849Z,65.14
2022-11-16T13:24:28.289Z,64.82
2022-11-16T13:27:06.060Z,64.90
2022-11-16T13:29:39.344Z,64.98
2022-11-16T13:32:14.705Z,65.14
2022-11-16T13:34:43.036Z,65.33
2022-11-16T13:37:43.524Z,65.06
2022-11-16T13:40:22.352Z,65.50
2022-11-16T13:43:08.188Z,65.33
2022-11-16T13:45:39.924Z,65.56
2022-11-16T13:48:19.289Z,65.21
2022-11-16T13:50:54.130Z,65.44
2022-11-16T13:56:28.317Z,64.95
2022-11-16T13:58:58.527Z,65.08
2022-11-16T14:01:27.055Z,65.14
2022-11-16T14:04:33.366Z,64.63
2022-11-16T14:07:01.508Z,64.72
2022-11-16T14:09:48.897Z,64.30
2022-11-16T14:12:53.838Z,63.80
2022-11-16T14:15:23.684Z,63.89
2022-11-16T14:18:00.634Z,63.73
2022-11-16T14:20:49.640Z,63.72
2022-11-16T14:23:30.079Z,63.83
2022-11-16T14:26:14.398Z,63.50
2022-11-16T14:29:03.940Z,63.73
2022-11-16T14:31:46.496Z,64.00
2022-11-16T14:34:18.772Z,63.66
2022-11-16T14:36:47.808Z,64.36
2022-11-16T14:39:38.458Z,63.99
2022-11-16T14:42:17.399Z,64.10
2022-11-16T14:44:46.032Z,64.20
2022-11-16T14:47:24.619Z,63.05
2022-11-16T14:49:53.475Z,63.22
2022-11-16T14:52:31.077Z,63.08
2022-11-16T14:55:02.221Z,63.08
2022-11-16T14:57:32.025Z,63.43
2022-11-16T15:00:13.077Z,63.05
2022-11-16T15:02:42.091Z,63.23
2022-11-16T15:05:17.855Z,62.76
2022-11-16T15:07:49.839Z,63.31
2022-11-16T15:10:20.526Z,63.30
2022-11-16T15:12:52.633Z,63.22
2022-11-16T15:15:24.259Z,63.37
2022-11-16T15:18:07.425Z,63.24
2022-11-16T15:20:37.463Z,63.53
2022-11-16T15:23:13.692Z,63.63
2022-11-16T15:25:45.301Z,63.40
2022-11-16T15:28:18.309Z,62.86
2022-11-16T15:30:47.889Z,63.29
2022-11-16T15:33:19.977Z,63.35
2022-11-16T15:35:48.216Z,63.40
2022-11-16T15:38:19.300Z,63.48
2022-11-16T15:40:50.498Z,63.56
2022-11-16T15:43:21.439Z,63.74
2022-11-16T15:45:50.360Z,63.57
2022-11-16T15:48:21.617Z,63.76
2022-11-16T15:51:06.321Z,63.82
2022-11-16T15:53:39.874Z,63.53
2022-11-16T15:56:11.158Z,63.77
2022-11-16T15:58:42.410Z,64.04
2022-11-16T16:01:11.914Z,64.12
2022-11-16T16:03:40.170Z,63.88
2022-11-16T16:06:14.025Z,63.92
2022-11-16T16:08:42.090Z,63.82
2022-11-16T16:11:12.813Z,63.92
2022-11-16T16:13:44.175Z,63.93
2022-11-16T16:16:26.120Z,63.74
2022-11-16T16:18:56.198Z,64.27
2022-11-16T16:21:24.403Z,64.15
2022-11-16T16:23:53.996Z,64.11
2022-11-16T16:26:22.937Z,64.19
2022-11-16T16:28:52.772Z,64.07
2022-11-16T16:31:21.158Z,64.05
2022-11-16T16:33:49.749Z,64.10
2022-11-16T16:36:17.837Z,64.25
2022-11-16T16:38:45.846Z,64.63
2022-11-16T16:41:23.988Z,64.53
2022-11-16T16:43:54.329Z,64.88
2022-11-16T16:46:22.763Z,64.73
2022-11-16T16:48:50.759Z,64.58
2022-11-16T16:51:18.818Z,64.49
2022-11-16T16:53:46.817Z,64.67
2022-11-16T16:56:16.704Z,64.49
2022-11-16T16:58:44.741Z,64.76
2022-11-16T17:01:14.433Z,64.56
2022-11-16T17:03:42.584Z,64.41
2022-11-16T17:06:10.593Z,64.40
2022-11-16T17:08:39.393Z,64.52
2022-11-16T17:11:07.501Z,64.73
2022-11-16T17:13:35.848Z,64.57
2022-11-16T17:16:06.080Z,64.48
2022-11-16T17:18:35.493Z,64.63
2022-11-16T17:21:07.675Z,64.43
2022-11-16T17:23:36.907Z,64.43
2022-11-16T17:26:05.936Z,64.40
2022-11-16T17:28:34.458Z,64.43
2022-11-16T17:31:03.320Z,64.53
2022-11-16T17:33:35.700Z,64.44
2022-11-16T17:36:04.837Z,64.75
2022-11-16T17:38:32.999Z,64.90
2022-11-16T17:41:05.996Z,64.59
2022-11-16T17:43:34.728Z,64.76
2022-11-16T17:46:05.192Z,65.10
2022-11-16T17:48:33.227Z,64.98
2022-11-16T17:51:02.876Z,64.85
2022-11-16T17:53:32.910Z,65.28
2022-11-16T17:56:01.315Z,65.20
2022-11-16T17:58:30.236Z,64.95
2022-11-16T18:01:00.555Z,64.76
2022-11-16T18:03:29.417Z,64.56
2022-11-16T18:06:04.956Z,65.08
2022-11-16T18:08:33.638Z,64.67
2022-11-16T18:11:05.684Z,64.67
2022-11-16T18:13:34.356Z,64.78
2022-11-16T18:16:06.881Z,64.59
2022-11-16T18:18:35.136Z,64.60
2022-11-16T18:21:05.055Z,64.70
2022-11-16T18:23:34.412Z,64.96
2022-11-16T18:26:03.614Z,65.08
2022-11-16T18:28:31.711Z,65.03
2022-11-16T18:31:04.992Z,64.27
2022-11-16T18:33:33.643Z,65.10
2022-11-16T18:36:01.942Z,65.04
2022-11-16T18:38:31.497Z,64.67
2022-11-16T18:41:07.554Z,64.76
2022-11-16T18:43:36.412Z,65.01
2022-11-16T18:46:04.785Z,65.01
2022-11-16T18:48:33.291Z,64.96
2022-11-16T18:51:01.541Z,65.01
2022-11-16T18:53:32.410Z,64.85
2022-11-16T18:56:00.951Z,64.87
2022-11-16T18:58:49.885Z,64.83
2022-11-16T19:01:19.236Z,65.02
2022-11-16T19:03:47.421Z,64.77
2022-11-16T19:06:17.754Z,65.03
2022-11-16T19:08:54.973Z,65.16
2022-11-16T19:11:24.460Z,65.17
2022-11-16T19:13:54.630Z,65.48
2022-11-16T19:16:23.892Z,65.38
2022-11-16T19:18:51.949Z,65.41
2022-11-16T19:21:21.824Z,65.27
2022-11-16T19:23:53.603Z,65.33
2022-11-16T19:26:23.492Z,65.33
2022-11-16T19:28:52.395Z,65.31
2022-11-16T19:31:23.335Z,65.42
2022-11-16T19:33:55.201Z,65.08
2022-11-16T19:36:24.066Z,65.70
2022-11-16T19:38:53.888Z,65.85
2022-11-16T19:41:22.561Z,65.59
2022-11-16T19:43:52.594Z,65.46
2022-11-16T19:46:21.603Z,65.71
2022-11-16T19:48:50.382Z,65.53
2022-11-16T19:51:20.693Z,65.25
2022-11-16T19:53:48.741Z,65.12
2022-11-16T19:56:20.504Z,65.33
2022-11-16T19:58:48.808Z,65.59
2022-11-16T20:01:18.994Z,65.75
2022-11-16T20:03:47.523Z,65.67
2022-11-16T20:06:16.658Z,65.40
2022-11-16T20:08:48.708Z,65.21
2022-11-16T20:11:20.655Z,65.12
2022-11-16T20:13:49.204Z,65.26
2022-11-16T20:16:18.308Z,65.08
2022-11-16T20:18:47.509Z,65.31
2022-11-16T20:21:20.437Z,65.51
2022-11-16T20:23:48.640Z,65.55
2022-11-16T20:26:18.106Z,65.48
2022-11-16T20:28:46.436Z,65.28
2022-11-16T20:31:16.755Z,65.35
2022-11-16T20:33:51.548Z,64.68
2022-11-16T20:36:19.893Z,65.13
2022-11-16T20:38:47.950Z,65.42
2022-11-16T20:41:19.191Z,65.38
2022-11-16T20:43:48.258Z,65.50
2022-11-16T20:46:17.930Z,65.22
2022-11-16T20:48:46.641Z,65.67
2022-11-16T20:51:16.838Z,65.72
2022-11-16T20:53:45.421Z,65.64
2022-11-16T20:56:13.937Z,65.78
2022-11-16T20:58:43.413Z,65.47
2022-11-16T21:01:13.937Z,65.07
2022-11-16T21:03:44.656Z,65.59
2022-11-16T21:06:13.320Z,65.25
2022-11-16T21:08:42.090Z,65.56
2022-11-16T21:11:13.153Z,65.11
2022-11-16T21:13:58.828Z,64.97
2022-11-16T21:16:28.308Z,64.78
2022-11-16T21:18:56.350Z,65.18
2022-11-16T21:21:25.397Z,64.97
2022-11-16T21:23:54.140Z,65.19
2022-11-16T21:26:23.569Z,65.46
2022-11-16T21:28:51.860Z,65.25
2022-11-16T21:31:21.997Z,65.46
2022-11-16T21:33:51.430Z,64.94
2022-11-16T21:36:21.295Z,64.98
2022-11-16T21:38:49.536Z,64.65
2022-11-16T21:41:18.990Z,64.59
2022-11-16T21:43:47.357Z,64.58
2022-11-16T21:46:17.298Z,64.28
2022-11-16T21:48:47.038Z,64.46
2022-11-16T21:51:18.976Z,64.82
2022-11-16T21:53:47.649Z,64.34
2022-11-16T21:56:16.929Z,64.49
2022-11-16T21:58:45.940Z,64.06
2022-11-16T22:01:16.020Z,64.53
2022-11-16T22:03:44.702Z,63.82
2022-11-16T22:06:32.785Z,63.53
2022-11-16T22:09:02.276Z,63.44
2022-11-16T22:11:30.399Z,62.92
2022-11-16T22:13:58.393Z,62.98
2022-11-16T22:16:26.407Z,63.31
2022-11-16T22:18:54.397Z,63.05
2022-11-16T22:21:22.505Z,63.10
2022-11-16T22:23:50.512Z,62.60
2022-11-16T22:26:20.204Z,62.93
2022-11-16T22:28:48.224Z,62.83
2022-11-16T22:31:16.479Z,63.40
2022-11-16T22:33:44.485Z,63.21
2022-11-16T22:36:13.391Z,62.94
2022-11-16T22:38:41.420Z,63.08
2022-11-16T22:41:10.275Z,62.61
2022-11-16T22:43:40.085Z,63.08
2022-11-16T22:46:08.378Z,62.76
2022-11-16T22:48:38.145Z,63.07
2022-11-16T22:51:07.911Z,63.74
2022-11-16T22:53:36.652Z,63.89
2022-11-16T22:56:06.986Z,63.61
2022-11-16T22:58:35.177Z,63.53
2022-11-16T23:01:04.948Z,63.56
2022-11-16T23:03:33.313Z,63.52
2022-11-16T23:06:01.725Z,63.41
2022-11-16T23:08:29.861Z,63.31
2022-11-16T23:11:19.797Z,63.20
2022-11-16T23:14:06.001Z,63.62
2022-11-16T23:16:35.870Z,63.79
2022-11-16T23:19:03.937Z,64.24
2022-11-16T23:21:49.450Z,63.81
2022-11-16T23:24:34.869Z,63.40
2022-11-16T23:27:22.372Z,63.38
2022-11-16T23:29:50.868Z,63.18
2022-11-16T23:32:20.300Z,63.28
2022-11-16T23:34:48.300Z,63.31
2022-11-16T23:37:16.310Z,63.29
2022-11-16T23:39:44.605Z,62.88
2022-11-16T23:42:30.343Z,62.94
2022-11-16T23:44:58.450Z,62.90
2022-11-16T23:47:27.809Z,62.53
2022-11-16T23:49:55.819Z,63.08
2022-11-16T23:52:23.818Z,62.86
2022-11-16T23:54:51.843Z,62.86
2022-11-16T23:57:19.864Z,62.45
2022-11-16T23:59:47.905Z,62.83
